sensor_id;sensor_type;location;lat;lon;timestamp;temperature;humidity
5675;DHT22;2860;54.284;10.158;2024-03-08T00:02:06;-0.40;99.90
5675;DHT22;2860;54.284;10.158;2024-03-08T00:04:32;-0.40;99.90
5675;DHT22;2860;54.284;10.158;2024-03-08T00:06:57;-0.40;99.90
5675;DHT22;2860;54.284;10.158;2024-03-08T00:09:23;-0.40;99.90
5675;DHT22;2860;54.284;10.158;2024-03-08T00:11:48;-0.30;99.90
5675;DHT22;2860;54.284;10.158;2024-03-08T00:14:15;-0.30;99.90
5675;DHT22;2860;54.284;10.158;2024-03-08T00:16:41;-0.40;99.90
5675;DHT22;2860;54.284;10.158;2024-03-08T00:19:09;-0.40;99.90
5675;DHT22;2860;54.284;10.158;2024-03-08T00:21:34;-0.40;99.90
5675;DHT22;2860;54.284;10.158;2024-03-08T00:24:01;-0.40;99.90
5675;DHT22;2860;54.284;10.158;2024-03-08T00:26:26;-0.40;99.90
5675;DHT22;2860;54.284;10.158;2024-03-08T00:28:52;-0.40;99.90
5675;DHT22;2860;54.284;10.158;2024-03-08T00:31:18;-0.50;99.90
5675;DHT22;2860;54.284;10.158;2024-03-08T00:33:44;-0.50;99.90
5675;DHT22;2860;54.284;10.158;2024-03-08T00:36:09;-0.50;99.90
5675;DHT22;2860;54.284;10.158;2024-03-08T00:38:35;-0.50;99.90
5675;DHT22;2860;54.284;10.158;2024-03-08T00:41:00;-0.50;99.90
5675;DHT22;2860;54.284;10.158;2024-03-08T00:43:27;-0.50;99.90
5675;DHT22;2860;54.284;10.158;2024-03-08T00:45:52;-0.50;99.90
5675;DHT22;2860;54.284;10.158;2024-03-08T00:48:18;-0.50;99.90
5675;DHT22;2860;54.284;10.158;2024-03-08T00:50:43;-0.50;99.90
5675;DHT22;2860;54.284;10.158;2024-03-08T00:53:12;-0.50;99.90
5675;DHT22;2860;54.284;10.158;2024-03-08T00:55:38;-0.50;99.90
5675;DHT22;2860;54.284;10.158;2024-03-08T00:58:04;-0.50;99.90
5675;DHT22;2860;54.284;10.158;2024-03-08T01:00:30;-0.50;99.90
5675;DHT22;2860;54.284;10.158;2024-03-08T01:02:55;-0.50;99.90
5675;DHT22;2860;54.284;10.158;2024-03-08T01:05:21;-0.50;99.90
5675;DHT22;2860;54.284;10.158;2024-03-08T01:07:49;-0.50;99.90
5675;DHT22;2860;54.284;10.158;2024-03-08T01:10:15;-0.60;99.90
5675;DHT22;2860;54.284;10.158;2024-03-08T01:12:40;-0.60;99.90
5675;DHT22;2860;54.284;10.158;2024-03-08T01:15:09;-0.60;99.90
5675;DHT22;2860;54.284;10.158;2024-03-08T01:17:34;-0.60;99.90
5675;DHT22;2860;54.284;10.158;2024-03-08T01:20:00;-0.60;99.90
5675;DHT22;2860;54.284;10.158;2024-03-08T01:22:25;-0.60;99.90
5675;DHT22;2860;54.284;10.158;2024-03-08T01:24:51;-0.60;99.90
5675;DHT22;2860;54.284;10.158;2024-03-08T01:27:16;-0.60;99.90
5675;DHT22;2860;54.284;10.158;2024-03-08T01:29:42;-0.60;99.90
5675;DHT22;2860;54.284;10.158;2024-03-08T01:32:07;-0.60;99.90
5675;DHT22;2860;54.284;10.158;2024-03-08T01:34:33;-0.60;99.90
5675;DHT22;2860;54.284;10.158;2024-03-08T01:36:59;-0.50;99.90
5675;DHT22;2860;54.284;10.158;2024-03-08T01:39:25;-0.50;99.90
5675;DHT22;2860;54.284;10.158;2024-03-08T01:41:50;-0.50;99.90
5675;DHT22;2860;54.284;10.158;2024-03-08T01:44:16;-0.50;99.90
5675;DHT22;2860;54.284;10.158;2024-03-08T01:46:45;-0.50;99.90
5675;DHT22;2860;54.284;10.158;2024-03-08T01:49:12;-0.50;99.90
5675;DHT22;2860;54.284;10.158;2024-03-08T01:51:40;-0.50;99.90
5675;DHT22;2860;54.284;10.158;2024-03-08T01:54:06;-0.50;99.90
5675;DHT22;2860;54.284;10.158;2024-03-08T01:56:35;-0.60;99.90
5675;DHT22;2860;54.284;10.158;2024-03-08T01:59:02;-0.60;99.90
5675;DHT22;2860;54.284;10.158;2024-03-08T02:01:28;-0.60;99.90
5675;DHT22;2860;54.284;10.158;2024-03-08T02:03:54;-0.60;99.90
5675;DHT22;2860;54.284;10.158;2024-03-08T02:06:19;-0.60;99.90
5675;DHT22;2860;54.284;10.158;2024-03-08T02:08:46;-0.60;99.90
5675;DHT22;2860;54.284;10.158;2024-03-08T02:11:12;-0.60;99.90
5675;DHT22;2860;54.284;10.158;2024-03-08T02:13:38;-0.60;99.90
5675;DHT22;2860;54.284;10.158;2024-03-08T02:16:03;-0.60;99.90
5675;DHT22;2860;54.284;10.158;2024-03-08T02:18:30;-0.60;99.90
5675;DHT22;2860;54.284;10.158;2024-03-08T02:21:01;-0.60;99.90
5675;DHT22;2860;54.284;10.158;2024-03-08T02:23:28;-0.60;99.90
5675;DHT22;2860;54.284;10.158;2024-03-08T02:25:55;-0.70;99.90
5675;DHT22;2860;54.284;10.158;2024-03-08T02:28:21;-0.70;99.90
5675;DHT22;2860;54.284;10.158;2024-03-08T02:30:47;-0.80;99.90
5675;DHT22;2860;54.284;10.158;2024-03-08T02:33:14;-0.80;99.90
5675;DHT22;2860;54.284;10.158;2024-03-08T02:35:42;-0.80;99.90
5675;DHT22;2860;54.284;10.158;2024-03-08T02:38:11;-0.80;99.90
5675;DHT22;2860;54.284;10.158;2024-03-08T02:40:37;-0.80;99.90
5675;DHT22;2860;54.284;10.158;2024-03-08T02:43:02;-0.80;99.90
5675;DHT22;2860;54.284;10.158;2024-03-08T02:45:30;-0.90;99.90
5675;DHT22;2860;54.284;10.158;2024-03-08T02:47:56;-0.90;99.90
5675;DHT22;2860;54.284;10.158;2024-03-08T02:50:21;-0.80;99.90
5675;DHT22;2860;54.284;10.158;2024-03-08T02:52:48;-0.80;99.90
5675;DHT22;2860;54.284;10.158;2024-03-08T02:55:13;-0.80;99.90
5675;DHT22;2860;54.284;10.158;2024-03-08T02:57:41;-0.80;99.90
5675;DHT22;2860;54.284;10.158;2024-03-08T03:00:08;-0.80;99.90
5675;DHT22;2860;54.284;10.158;2024-03-08T03:02:34;-0.80;99.90
5675;DHT22;2860;54.284;10.158;2024-03-08T03:05:00;-0.70;99.90
5675;DHT22;2860;54.284;10.158;2024-03-08T03:07:30;-0.70;99.90
5675;DHT22;2860;54.284;10.158;2024-03-08T03:09:56;-0.60;99.90
5675;DHT22;2860;54.284;10.158;2024-03-08T03:12:21;-0.60;99.90
5675;DHT22;2860;54.284;10.158;2024-03-08T03:14:48;-0.50;99.90
5675;DHT22;2860;54.284;10.158;2024-03-08T03:17:13;-0.50;99.90
5675;DHT22;2860;54.284;10.158;2024-03-08T03:19:41;-0.40;99.90
5675;DHT22;2860;54.284;10.158;2024-03-08T03:22:07;-0.30;99.90
5675;DHT22;2860;54.284;10.158;2024-03-08T03:24:35;-0.30;99.90
5675;DHT22;2860;54.284;10.158;2024-03-08T03:27:03;-0.20;99.90
5675;DHT22;2860;54.284;10.158;2024-03-08T03:29:36;-0.20;99.90
5675;DHT22;2860;54.284;10.158;2024-03-08T03:32:01;-0.20;99.90
5675;DHT22;2860;54.284;10.158;2024-03-08T03:34:29;-0.10;99.90
5675;DHT22;2860;54.284;10.158;2024-03-08T03:36:54;-0.10;99.90
5675;DHT22;2860;54.284;10.158;2024-03-08T03:39:21;0.00;99.90
5675;DHT22;2860;54.284;10.158;2024-03-08T03:41:48;0.00;99.90
5675;DHT22;2860;54.284;10.158;2024-03-08T03:44:17;0.10;99.90
5675;DHT22;2860;54.284;10.158;2024-03-08T03:46:43;0.10;99.90
5675;DHT22;2860;54.284;10.158;2024-03-08T03:49:12;0.10;99.90
5675;DHT22;2860;54.284;10.158;2024-03-08T03:51:37;0.20;99.90
5675;DHT22;2860;54.284;10.158;2024-03-08T03:54:03;0.20;99.90
5675;DHT22;2860;54.284;10.158;2024-03-08T03:56:29;0.30;99.90
5675;DHT22;2860;54.284;10.158;2024-03-08T03:58:55;0.30;99.90
5675;DHT22;2860;54.284;10.158;2024-03-08T04:01:21;0.30;99.90
5675;DHT22;2860;54.284;10.158;2024-03-08T04:03:47;0.30;99.90
5675;DHT22;2860;54.284;10.158;2024-03-08T04:06:12;0.40;99.90
5675;DHT22;2860;54.284;10.158;2024-03-08T04:08:38;0.50;99.90
5675;DHT22;2860;54.284;10.158;2024-03-08T04:11:03;0.50;99.90
5675;DHT22;2860;54.284;10.158;2024-03-08T04:13:29;0.50;99.90
5675;DHT22;2860;54.284;10.158;2024-03-08T04:15:54;0.50;99.90
5675;DHT22;2860;54.284;10.158;2024-03-08T04:18:20;0.60;99.90
5675;DHT22;2860;54.284;10.158;2024-03-08T04:20:45;0.60;99.90
5675;DHT22;2860;54.284;10.158;2024-03-08T04:23:11;0.60;99.90
5675;DHT22;2860;54.284;10.158;2024-03-08T04:25:36;0.70;99.90
5675;DHT22;2860;54.284;10.158;2024-03-08T04:28:03;0.70;99.90
5675;DHT22;2860;54.284;10.158;2024-03-08T04:30:28;0.70;99.90
5675;DHT22;2860;54.284;10.158;2024-03-08T04:32:54;0.70;99.90
5675;DHT22;2860;54.284;10.158;2024-03-08T04:35:19;0.70;99.90
5675;DHT22;2860;54.284;10.158;2024-03-08T04:37:45;0.70;99.90
5675;DHT22;2860;54.284;10.158;2024-03-08T04:40:11;0.80;99.90
5675;DHT22;2860;54.284;10.158;2024-03-08T04:42:37;0.80;99.90
5675;DHT22;2860;54.284;10.158;2024-03-08T04:45:04;0.80;99.90
5675;DHT22;2860;54.284;10.158;2024-03-08T04:47:30;0.80;99.90
5675;DHT22;2860;54.284;10.158;2024-03-08T04:49:56;0.80;99.90
5675;DHT22;2860;54.284;10.158;2024-03-08T04:52:22;0.80;99.90
5675;DHT22;2860;54.284;10.158;2024-03-08T04:54:48;0.80;99.90
5675;DHT22;2860;54.284;10.158;2024-03-08T04:57:13;0.90;99.90
5675;DHT22;2860;54.284;10.158;2024-03-08T04:59:39;0.90;99.90
5675;DHT22;2860;54.284;10.158;2024-03-08T05:02:05;0.90;99.90
5675;DHT22;2860;54.284;10.158;2024-03-08T05:04:32;0.90;99.90
5675;DHT22;2860;54.284;10.158;2024-03-08T05:06:58;1.00;99.90
5675;DHT22;2860;54.284;10.158;2024-03-08T05:09:26;1.00;99.90
5675;DHT22;2860;54.284;10.158;2024-03-08T05:11:54;0.90;99.90
5675;DHT22;2860;54.284;10.158;2024-03-08T05:14:19;1.00;99.90
5675;DHT22;2860;54.284;10.158;2024-03-08T05:16:46;1.00;99.90
5675;DHT22;2860;54.284;10.158;2024-03-08T05:19:19;1.00;99.90
5675;DHT22;2860;54.284;10.158;2024-03-08T05:21:45;1.00;99.90
5675;DHT22;2860;54.284;10.158;2024-03-08T05:24:11;1.00;99.90
5675;DHT22;2860;54.284;10.158;2024-03-08T05:26:37;1.00;99.90
5675;DHT22;2860;54.284;10.158;2024-03-08T05:29:03;1.00;99.90
5675;DHT22;2860;54.284;10.158;2024-03-08T05:31:29;1.00;99.90
5675;DHT22;2860;54.284;10.158;2024-03-08T05:33:56;1.00;99.90
5675;DHT22;2860;54.284;10.158;2024-03-08T05:36:21;1.10;99.90
5675;DHT22;2860;54.284;10.158;2024-03-08T05:38:47;1.00;99.90
5675;DHT22;2860;54.284;10.158;2024-03-08T05:41:15;1.10;99.90
5675;DHT22;2860;54.284;10.158;2024-03-08T05:43:40;1.10;99.90
5675;DHT22;2860;54.284;10.158;2024-03-08T05:46:07;1.10;99.90
5675;DHT22;2860;54.284;10.158;2024-03-08T05:48:32;1.10;99.90
5675;DHT22;2860;54.284;10.158;2024-03-08T05:50:59;1.10;99.90
5675;DHT22;2860;54.284;10.158;2024-03-08T05:53:25;1.10;99.90
5675;DHT22;2860;54.284;10.158;2024-03-08T05:55:52;1.10;99.90
5675;DHT22;2860;54.284;10.158;2024-03-08T05:58:17;1.10;99.90
5675;DHT22;2860;54.284;10.158;2024-03-08T06:00:42;1.10;99.90
5675;DHT22;2860;54.284;10.158;2024-03-08T06:03:08;1.20;99.90
5675;DHT22;2860;54.284;10.158;2024-03-08T06:05:34;1.20;99.90
5675;DHT22;2860;54.284;10.158;2024-03-08T06:08:00;1.20;99.90
5675;DHT22;2860;54.284;10.158;2024-03-08T06:10:25;1.20;99.90
5675;DHT22;2860;54.284;10.158;2024-03-08T06:12:51;1.20;99.90
5675;DHT22;2860;54.284;10.158;2024-03-08T06:15:17;1.20;99.90
5675;DHT22;2860;54.284;10.158;2024-03-08T06:17:42;1.20;99.90
5675;DHT22;2860;54.284;10.158;2024-03-08T06:20:08;1.30;99.90
5675;DHT22;2860;54.284;10.158;2024-03-08T06:22:40;1.30;99.90
5675;DHT22;2860;54.284;10.158;2024-03-08T06:25:07;1.30;99.90
5675;DHT22;2860;54.284;10.158;2024-03-08T06:27:33;1.30;99.90
5675;DHT22;2860;54.284;10.158;2024-03-08T06:30:02;1.30;99.90
5675;DHT22;2860;54.284;10.158;2024-03-08T06:32:30;1.30;99.90
5675;DHT22;2860;54.284;10.158;2024-03-08T06:34:55;1.40;99.90
5675;DHT22;2860;54.284;10.158;2024-03-08T06:37:21;1.40;99.90
5675;DHT22;2860;54.284;10.158;2024-03-08T06:39:48;1.50;99.90
5675;DHT22;2860;54.284;10.158;2024-03-08T06:42:13;1.50;99.90
5675;DHT22;2860;54.284;10.158;2024-03-08T06:44:39;1.50;99.90
5675;DHT22;2860;54.284;10.158;2024-03-08T06:47:14;1.50;99.90
5675;DHT22;2860;54.284;10.158;2024-03-08T06:49:40;1.50;99.90
5675;DHT22;2860;54.284;10.158;2024-03-08T06:52:06;1.60;99.90
5675;DHT22;2860;54.284;10.158;2024-03-08T06:54:34;1.60;99.90
5675;DHT22;2860;54.284;10.158;2024-03-08T06:57:01;1.60;99.90
5675;DHT22;2860;54.284;10.158;2024-03-08T06:59:29;1.50;99.90
5675;DHT22;2860;54.284;10.158;2024-03-08T07:01:54;1.50;99.90
5675;DHT22;2860;54.284;10.158;2024-03-08T07:04:20;1.50;99.90
5675;DHT22;2860;54.284;10.158;2024-03-08T07:06:47;1.50;99.90
5675;DHT22;2860;54.284;10.158;2024-03-08T07:09:15;1.60;99.90
5675;DHT22;2860;54.284;10.158;2024-03-08T07:11:42;1.70;99.90
5675;DHT22;2860;54.284;10.158;2024-03-08T07:14:08;1.80;99.90
5675;DHT22;2860;54.284;10.158;2024-03-08T07:16:34;1.80;99.90
5675;DHT22;2860;54.284;10.158;2024-03-08T07:19:01;1.80;99.90
5675;DHT22;2860;54.284;10.158;2024-03-08T07:21:26;1.90;99.90
5675;DHT22;2860;54.284;10.158;2024-03-08T07:23:52;1.90;99.90
5675;DHT22;2860;54.284;10.158;2024-03-08T07:26:26;1.90;99.90
5675;DHT22;2860;54.284;10.158;2024-03-08T07:28:53;1.90;99.90
5675;DHT22;2860;54.284;10.158;2024-03-08T07:31:20;2.00;99.90
5675;DHT22;2860;54.284;10.158;2024-03-08T07:33:52;2.00;99.90
5675;DHT22;2860;54.284;10.158;2024-03-08T07:36:19;2.00;99.90
5675;DHT22;2860;54.284;10.158;2024-03-08T07:38:44;2.20;99.90
5675;DHT22;2860;54.284;10.158;2024-03-08T07:41:12;2.40;99.90
5675;DHT22;2860;54.284;10.158;2024-03-08T07:43:38;2.60;99.90
5675;DHT22;2860;54.284;10.158;2024-03-08T07:46:03;2.70;99.90
5675;DHT22;2860;54.284;10.158;2024-03-08T07:48:29;2.90;99.90
5675;DHT22;2860;54.284;10.158;2024-03-08T07:50:56;3.00;99.90
5675;DHT22;2860;54.284;10.158;2024-03-08T07:53:21;3.00;99.90
5675;DHT22;2860;54.284;10.158;2024-03-08T07:55:47;2.80;99.90
5675;DHT22;2860;54.284;10.158;2024-03-08T07:58:12;2.80;99.90
5675;DHT22;2860;54.284;10.158;2024-03-08T08:00:39;2.70;99.90
5675;DHT22;2860;54.284;10.158;2024-03-08T08:03:04;2.70;99.90
5675;DHT22;2860;54.284;10.158;2024-03-08T08:05:30;2.70;99.90
5675;DHT22;2860;54.284;10.158;2024-03-08T08:08:01;2.70;99.90
5675;DHT22;2860;54.284;10.158;2024-03-08T08:10:28;2.60;99.90
5675;DHT22;2860;54.284;10.158;2024-03-08T08:12:54;2.60;99.90
5675;DHT22;2860;54.284;10.158;2024-03-08T08:15:20;2.50;99.90
5675;DHT22;2860;54.284;10.158;2024-03-08T08:17:46;2.60;99.90
5675;DHT22;2860;54.284;10.158;2024-03-08T08:20:12;2.90;99.90
5675;DHT22;2860;54.284;10.158;2024-03-08T08:22:41;3.20;99.90
5675;DHT22;2860;54.284;10.158;2024-03-08T08:25:08;3.60;99.90
5675;DHT22;2860;54.284;10.158;2024-03-08T08:27:34;3.80;99.90
5675;DHT22;2860;54.284;10.158;2024-03-08T08:29:59;3.90;99.90
5675;DHT22;2860;54.284;10.158;2024-03-08T08:32:25;3.90;99.90
5675;DHT22;2860;54.284;10.158;2024-03-08T08:34:51;3.80;99.90
5675;DHT22;2860;54.284;10.158;2024-03-08T08:37:17;3.60;99.90
5675;DHT22;2860;54.284;10.158;2024-03-08T08:39:42;3.50;99.90
5675;DHT22;2860;54.284;10.158;2024-03-08T08:42:08;3.50;99.90
5675;DHT22;2860;54.284;10.158;2024-03-08T08:44:35;3.60;99.90
5675;DHT22;2860;54.284;10.158;2024-03-08T08:47:01;3.70;99.90
5675;DHT22;2860;54.284;10.158;2024-03-08T08:49:28;3.80;99.90
5675;DHT22;2860;54.284;10.158;2024-03-08T08:51:53;3.80;99.90
5675;DHT22;2860;54.284;10.158;2024-03-08T08:54:19;3.80;99.90
5675;DHT22;2860;54.284;10.158;2024-03-08T08:56:45;3.90;99.90
5675;DHT22;2860;54.284;10.158;2024-03-08T08:59:12;4.00;99.90
5675;DHT22;2860;54.284;10.158;2024-03-08T09:01:40;4.00;99.90
5675;DHT22;2860;54.284;10.158;2024-03-08T09:04:05;4.10;99.90
5675;DHT22;2860;54.284;10.158;2024-03-08T09:06:31;4.10;99.90
5675;DHT22;2860;54.284;10.158;2024-03-08T09:08:57;4.10;99.90
5675;DHT22;2860;54.284;10.158;2024-03-08T09:11:23;4.20;99.90
5675;DHT22;2860;54.284;10.158;2024-03-08T09:13:50;4.20;99.90
5675;DHT22;2860;54.284;10.158;2024-03-08T09:16:16;4.30;99.90
5675;DHT22;2860;54.284;10.158;2024-03-08T09:18:41;4.40;99.90
5675;DHT22;2860;54.284;10.158;2024-03-08T09:21:07;4.50;99.90
5675;DHT22;2860;54.284;10.158;2024-03-08T09:23:38;4.60;99.90
5675;DHT22;2860;54.284;10.158;2024-03-08T09:26:03;4.60;99.90
5675;DHT22;2860;54.284;10.158;2024-03-08T09:28:29;4.80;99.90
5675;DHT22;2860;54.284;10.158;2024-03-08T09:30:55;4.90;99.90
5675;DHT22;2860;54.284;10.158;2024-03-08T09:33:20;5.00;99.90
5675;DHT22;2860;54.284;10.158;2024-03-08T09:35:47;5.00;99.90
5675;DHT22;2860;54.284;10.158;2024-03-08T09:38:13;5.10;99.90
5675;DHT22;2860;54.284;10.158;2024-03-08T09:40:42;5.10;99.90
5675;DHT22;2860;54.284;10.158;2024-03-08T09:43:11;5.10;99.90
5675;DHT22;2860;54.284;10.158;2024-03-08T09:45:37;5.10;99.90
5675;DHT22;2860;54.284;10.158;2024-03-08T09:48:11;5.10;99.90
5675;DHT22;2860;54.284;10.158;2024-03-08T09:50:42;5.10;99.90
5675;DHT22;2860;54.284;10.158;2024-03-08T09:53:09;5.30;99.90
5675;DHT22;2860;54.284;10.158;2024-03-08T09:55:37;5.30;99.90
5675;DHT22;2860;54.284;10.158;2024-03-08T09:58:06;5.20;99.90
5675;DHT22;2860;54.284;10.158;2024-03-08T10:00:56;5.30;99.90
5675;DHT22;2860;54.284;10.158;2024-03-08T10:03:27;5.50;99.90
5675;DHT22;2860;54.284;10.158;2024-03-08T10:05:52;5.50;99.90
5675;DHT22;2860;54.284;10.158;2024-03-08T10:08:21;5.50;99.90
5675;DHT22;2860;54.284;10.158;2024-03-08T10:10:47;5.60;99.90
5675;DHT22;2860;54.284;10.158;2024-03-08T10:13:13;5.60;99.90
5675;DHT22;2860;54.284;10.158;2024-03-08T10:15:39;5.70;99.90
5675;DHT22;2860;54.284;10.158;2024-03-08T10:18:05;5.70;99.90
5675;DHT22;2860;54.284;10.158;2024-03-08T10:20:31;5.80;99.90
5675;DHT22;2860;54.284;10.158;2024-03-08T10:22:59;5.90;99.90
5675;DHT22;2860;54.284;10.158;2024-03-08T10:25:25;5.90;99.90
5675;DHT22;2860;54.284;10.158;2024-03-08T10:27:50;5.90;99.90
5675;DHT22;2860;54.284;10.158;2024-03-08T10:30:16;5.80;99.90
5675;DHT22;2860;54.284;10.158;2024-03-08T10:32:45;5.90;99.90
5675;DHT22;2860;54.284;10.158;2024-03-08T10:35:12;6.00;99.90
5675;DHT22;2860;54.284;10.158;2024-03-08T10:37:45;6.10;99.90
5675;DHT22;2860;54.284;10.158;2024-03-08T10:40:16;6.10;99.90
5675;DHT22;2860;54.284;10.158;2024-03-08T10:42:56;6.10;99.90
5675;DHT22;2860;54.284;10.158;2024-03-08T10:45:39;6.20;99.90
5675;DHT22;2860;54.284;10.158;2024-03-08T10:48:27;6.20;99.90
5675;DHT22;2860;54.284;10.158;2024-03-08T10:51:02;6.30;99.90
5675;DHT22;2860;54.284;10.158;2024-03-08T10:53:29;6.40;99.90
5675;DHT22;2860;54.284;10.158;2024-03-08T10:55:56;6.50;99.90
5675;DHT22;2860;54.284;10.158;2024-03-08T10:58:23;6.50;99.90
5675;DHT22;2860;54.284;10.158;2024-03-08T11:00:53;6.50;99.90
5675;DHT22;2860;54.284;10.158;2024-03-08T11:08:57;6.70;99.90
5675;DHT22;2860;54.284;10.158;2024-03-08T11:11:33;6.60;99.90
5675;DHT22;2860;54.284;10.158;2024-03-08T11:14:03;6.70;99.90
5675;DHT22;2860;54.284;10.158;2024-03-08T11:19:06;6.70;99.90
5675;DHT22;2860;54.284;10.158;2024-03-08T11:21:57;6.70;99.90
5675;DHT22;2860;54.284;10.158;2024-03-08T11:24:23;6.70;99.90
5675;DHT22;2860;54.284;10.158;2024-03-08T11:26:56;6.70;99.90
5675;DHT22;2860;54.284;10.158;2024-03-08T11:32:14;6.60;99.90
5675;DHT22;2860;54.284;10.158;2024-03-08T11:34:41;6.70;99.90
5675;DHT22;2860;54.284;10.158;2024-03-08T11:37:13;6.80;99.90
5675;DHT22;2860;54.284;10.158;2024-03-08T11:39:41;6.90;99.90
5675;DHT22;2860;54.284;10.158;2024-03-08T11:42:11;6.80;99.90
5675;DHT22;2860;54.284;10.158;2024-03-08T11:44:37;6.80;99.90
5675;DHT22;2860;54.284;10.158;2024-03-08T11:47:07;6.90;99.90
5675;DHT22;2860;54.284;10.158;2024-03-08T11:49:33;6.90;99.90
5675;DHT22;2860;54.284;10.158;2024-03-08T11:51:58;6.80;99.90
5675;DHT22;2860;54.284;10.158;2024-03-08T11:54:24;6.80;99.90
5675;DHT22;2860;54.284;10.158;2024-03-08T11:56:52;6.90;99.90
5675;DHT22;2860;54.284;10.158;2024-03-08T11:59:17;6.90;99.90
5675;DHT22;2860;54.284;10.158;2024-03-08T12:01:43;6.90;99.90
5675;DHT22;2860;54.284;10.158;2024-03-08T12:04:12;6.90;99.90
5675;DHT22;2860;54.284;10.158;2024-03-08T12:06:39;7.00;99.90
5675;DHT22;2860;54.284;10.158;2024-03-08T12:09:09;7.20;99.90
5675;DHT22;2860;54.284;10.158;2024-03-08T12:11:36;7.30;99.90
5675;DHT22;2860;54.284;10.158;2024-03-08T12:14:02;7.20;99.90
5675;DHT22;2860;54.284;10.158;2024-03-08T12:16:27;7.20;99.90
5675;DHT22;2860;54.284;10.158;2024-03-08T12:18:53;7.30;99.90
5675;DHT22;2860;54.284;10.158;2024-03-08T12:21:20;7.30;99.90
5675;DHT22;2860;54.284;10.158;2024-03-08T12:23:47;7.30;99.90
5675;DHT22;2860;54.284;10.158;2024-03-08T12:26:24;7.40;99.90
5675;DHT22;2860;54.284;10.158;2024-03-08T12:28:51;7.30;99.90
5675;DHT22;2860;54.284;10.158;2024-03-08T12:31:17;7.30;99.90
5675;DHT22;2860;54.284;10.158;2024-03-08T12:33:55;7.30;99.90
5675;DHT22;2860;54.284;10.158;2024-03-08T12:36:24;7.30;99.90
5675;DHT22;2860;54.284;10.158;2024-03-08T12:38:50;7.30;99.90
5675;DHT22;2860;54.284;10.158;2024-03-08T12:41:19;7.30;99.90
5675;DHT22;2860;54.284;10.158;2024-03-08T12:43:45;7.40;99.90
5675;DHT22;2860;54.284;10.158;2024-03-08T12:46:17;7.50;99.90
5675;DHT22;2860;54.284;10.158;2024-03-08T12:48:43;7.40;99.90
5675;DHT22;2860;54.284;10.158;2024-03-08T12:51:12;7.40;99.90
5675;DHT22;2860;54.284;10.158;2024-03-08T12:53:38;7.40;99.90
5675;DHT22;2860;54.284;10.158;2024-03-08T12:56:06;7.30;99.90
5675;DHT22;2860;54.284;10.158;2024-03-08T12:58:36;7.20;99.90
5675;DHT22;2860;54.284;10.158;2024-03-08T13:01:03;7.20;99.90
5675;DHT22;2860;54.284;10.158;2024-03-08T13:03:34;7.20;99.90
5675;DHT22;2860;54.284;10.158;2024-03-08T13:06:02;7.30;99.90
5675;DHT22;2860;54.284;10.158;2024-03-08T13:08:28;7.40;99.90
5675;DHT22;2860;54.284;10.158;2024-03-08T13:10:55;7.30;99.90
5675;DHT22;2860;54.284;10.158;2024-03-08T13:13:20;7.20;99.90
5675;DHT22;2860;54.284;10.158;2024-03-08T13:15:46;7.20;99.90
5675;DHT22;2860;54.284;10.158;2024-03-08T13:18:11;7.30;99.90
5675;DHT22;2860;54.284;10.158;2024-03-08T13:20:37;7.30;99.90
5675;DHT22;2860;54.284;10.158;2024-03-08T13:23:04;7.20;99.90
5675;DHT22;2860;54.284;10.158;2024-03-08T13:25:31;7.30;99.90
5675;DHT22;2860;54.284;10.158;2024-03-08T13:27:56;7.30;99.90
5675;DHT22;2860;54.284;10.158;2024-03-08T13:30:24;7.20;99.90
5675;DHT22;2860;54.284;10.158;2024-03-08T13:32:52;7.10;99.90
5675;DHT22;2860;54.284;10.158;2024-03-08T13:35:18;7.00;99.90
5675;DHT22;2860;54.284;10.158;2024-03-08T13:37:50;7.00;99.90
5675;DHT22;2860;54.284;10.158;2024-03-08T13:40:16;6.90;99.90
5675;DHT22;2860;54.284;10.158;2024-03-08T13:42:44;7.00;99.90
5675;DHT22;2860;54.284;10.158;2024-03-08T13:45:10;7.00;99.90
5675;DHT22;2860;54.284;10.158;2024-03-08T13:47:40;6.90;99.90
5675;DHT22;2860;54.284;10.158;2024-03-08T13:50:10;7.00;99.90
5675;DHT22;2860;54.284;10.158;2024-03-08T13:52:39;7.00;99.90
5675;DHT22;2860;54.284;10.158;2024-03-08T13:55:05;7.00;99.90
5675;DHT22;2860;54.284;10.158;2024-03-08T13:57:32;7.00;99.90
5675;DHT22;2860;54.284;10.158;2024-03-08T13:59:58;7.00;99.90
5675;DHT22;2860;54.284;10.158;2024-03-08T14:02:23;7.00;99.90
5675;DHT22;2860;54.284;10.158;2024-03-08T14:04:53;7.00;99.90
5675;DHT22;2860;54.284;10.158;2024-03-08T14:07:20;6.80;99.90
5675;DHT22;2860;54.284;10.158;2024-03-08T14:09:45;6.70;99.90
5675;DHT22;2860;54.284;10.158;2024-03-08T14:12:11;6.70;99.90
5675;DHT22;2860;54.284;10.158;2024-03-08T14:14:36;6.60;99.90
5675;DHT22;2860;54.284;10.158;2024-03-08T14:17:02;6.60;99.90
5675;DHT22;2860;54.284;10.158;2024-03-08T14:19:29;6.50;99.90
5675;DHT22;2860;54.284;10.158;2024-03-08T14:21:56;6.50;99.90
5675;DHT22;2860;54.284;10.158;2024-03-08T14:24:22;6.50;99.90
5675;DHT22;2860;54.284;10.158;2024-03-08T14:26:49;6.40;99.90
5675;DHT22;2860;54.284;10.158;2024-03-08T14:29:15;6.40;99.90
5675;DHT22;2860;54.284;10.158;2024-03-08T14:31:40;6.30;99.90
5675;DHT22;2860;54.284;10.158;2024-03-08T14:34:07;6.20;99.90
5675;DHT22;2860;54.284;10.158;2024-03-08T14:36:32;6.20;99.90
5675;DHT22;2860;54.284;10.158;2024-03-08T14:38:58;6.10;99.90
5675;DHT22;2860;54.284;10.158;2024-03-08T14:41:24;6.00;99.90
5675;DHT22;2860;54.284;10.158;2024-03-08T14:43:49;6.00;99.90
5675;DHT22;2860;54.284;10.158;2024-03-08T14:46:15;5.90;99.90
5675;DHT22;2860;54.284;10.158;2024-03-08T14:48:47;5.80;99.90
5675;DHT22;2860;54.284;10.158;2024-03-08T14:51:13;5.70;99.90
5675;DHT22;2860;54.284;10.158;2024-03-08T14:53:40;5.60;99.90
5675;DHT22;2860;54.284;10.158;2024-03-08T14:56:08;5.60;99.90
5675;DHT22;2860;54.284;10.158;2024-03-08T14:58:35;5.50;99.90
5675;DHT22;2860;54.284;10.158;2024-03-08T15:01:01;5.40;99.90
5675;DHT22;2860;54.284;10.158;2024-03-08T15:03:27;5.40;99.90
5675;DHT22;2860;54.284;10.158;2024-03-08T15:05:54;5.40;99.90
5675;DHT22;2860;54.284;10.158;2024-03-08T15:08:21;5.40;99.90
5675;DHT22;2860;54.284;10.158;2024-03-08T15:10:49;5.30;99.90
5675;DHT22;2860;54.284;10.158;2024-03-08T15:13:22;5.30;99.90
5675;DHT22;2860;54.284;10.158;2024-03-08T15:15:48;5.20;99.90
5675;DHT22;2860;54.284;10.158;2024-03-08T15:18:21;5.20;99.90
5675;DHT22;2860;54.284;10.158;2024-03-08T15:20:46;5.10;99.90
5675;DHT22;2860;54.284;10.158;2024-03-08T15:23:12;5.10;99.90
5675;DHT22;2860;54.284;10.158;2024-03-08T15:25:39;5.10;99.90
5675;DHT22;2860;54.284;10.158;2024-03-08T15:28:07;5.00;99.90
5675;DHT22;2860;54.284;10.158;2024-03-08T15:30:39;4.90;99.90
5675;DHT22;2860;54.284;10.158;2024-03-08T15:33:05;4.80;99.90
5675;DHT22;2860;54.284;10.158;2024-03-08T15:35:35;4.70;99.90
5675;DHT22;2860;54.284;10.158;2024-03-08T15:38:03;4.60;99.90
5675;DHT22;2860;54.284;10.158;2024-03-08T15:40:29;4.50;99.90
5675;DHT22;2860;54.284;10.158;2024-03-08T15:42:57;4.50;99.90
5675;DHT22;2860;54.284;10.158;2024-03-08T15:45:23;4.50;99.90
5675;DHT22;2860;54.284;10.158;2024-03-08T15:47:50;4.40;99.90
5675;DHT22;2860;54.284;10.158;2024-03-08T15:50:15;4.30;99.90
5675;DHT22;2860;54.284;10.158;2024-03-08T15:52:47;4.30;99.90
5675;DHT22;2860;54.284;10.158;2024-03-08T15:55:19;4.20;99.90
5675;DHT22;2860;54.284;10.158;2024-03-08T15:57:48;4.20;99.90
5675;DHT22;2860;54.284;10.158;2024-03-08T16:00:20;4.10;99.90
5675;DHT22;2860;54.284;10.158;2024-03-08T16:03:07;4.10;99.90
5675;DHT22;2860;54.284;10.158;2024-03-08T16:05:36;4.00;99.90
5675;DHT22;2860;54.284;10.158;2024-03-08T16:08:02;4.00;99.90